createdAt,value
2022-11-26T00:01:48.280Z,12.33
2022-11-26T00:04:16.132Z,14.23
2022-11-26T00:06:45.514Z,10.73
2022-11-26T00:09:17.448Z,10.53
2022-11-26T00:11:45.437Z,10.40
2022-11-26T00:14:16.205Z,13.63
2022-11-26T00:16:44.603Z,13.70
2022-11-26T00:19:12.852Z,15.27
2022-11-26T00:21:42.154Z,16.63
2022-11-26T00:24:26.242Z,14.57
2022-11-26T00:26:54.853Z,12.67
2022-11-26T00:29:24.128Z,11.97
2022-11-26T00:31:52.054Z,13.77
2022-11-26T00:34:19.962Z,16.87
2022-11-26T00:36:48.312Z,15.50
2022-11-26T00:39:19.256Z,13.27
2022-11-26T00:41:50.649Z,11.43
2022-11-26T00:44:20.009Z,12.23
2022-11-26T00:46:49.526Z,14.07
2022-11-26T00:49:17.988Z,17.17
2022-11-26T00:51:46.927Z,11.43
2022-11-26T00:54:17.886Z,14.43
2022-11-26T00:56:47.233Z,16.20
2022-11-26T00:59:18.095Z,16.07
2022-11-26T01:01:45.977Z,14.87
2022-11-26T01:04:15.546Z,15.00
2022-11-26T01:06:45.917Z,10.50
2022-11-26T01:09:19.476Z,17.87
2022-11-26T01:11:52.309Z,12.57
2022-11-26T01:14:23.479Z,13.87
2022-11-26T01:16:54.131Z,14.17
2022-11-26T01:19:23.372Z,13.93
2022-11-26T01:21:51.226Z,16.73
2022-11-26T01:24:19.077Z,16.10
2022-11-26T01:26:46.975Z,21.30
2022-11-26T01:29:17.267Z,12.67
2022-11-26T01:31:45.824Z,10.90
2022-11-26T01:34:14.224Z,14.00
2022-11-26T01:36:44.384Z,10.30
2022-11-26T01:39:16.324Z,14.43
2022-11-26T01:41:48.938Z,18.90
2022-11-26T01:44:19.932Z,14.00
2022-11-26T01:46:48.999Z,16.13
2022-11-26T01:49:22.663Z,16.07
2022-11-26T01:52:01.193Z,13.60
2022-11-26T01:54:29.500Z,13.70
2022-11-26T01:57:00.742Z,13.90
2022-11-26T01:59:34.146Z,16.97
2022-11-26T02:02:02.517Z,21.30
2022-11-26T02:04:34.269Z,11.97
2022-11-26T02:07:04.989Z,17.10
2022-11-26T02:09:33.379Z,14.13
2022-11-26T02:12:01.495Z,18.80
2022-11-26T02:14:33.430Z,17.83
2022-11-26T02:17:13.637Z,16.13
2022-11-26T02:20:16.389Z,11.40
2022-11-26T02:23:25.999Z,12.17
2022-11-26T02:26:23.485Z,14.83
2022-11-26T02:29:15.195Z,12.17
2022-11-26T02:31:49.735Z,12.67
2022-11-26T02:34:23.837Z,13.53
2022-11-26T02:36:56.411Z,14.57
2022-11-26T02:39:27.386Z,17.20
2022-11-26T02:41:57.970Z,14.77
2022-11-26T02:44:29.536Z,17.87
2022-11-26T02:47:02.637Z,21.37
2022-11-26T02:49:32.411Z,11.80
2022-11-26T02:52:03.561Z,12.97
2022-11-26T02:54:34.433Z,14.23
2022-11-26T02:57:05.755Z,17.73
2022-11-26T02:59:34.491Z,13.33
2022-11-26T03:02:10.592Z,13.77
2022-11-26T03:04:42.063Z,16.37
2022-11-26T03:07:12.944Z,15.30
2022-11-26T03:09:42.488Z,13.57
2022-11-26T03:12:10.463Z,14.60
2022-11-26T03:14:38.747Z,11.93
2022-11-26T03:17:08.206Z,15.50
2022-11-26T03:19:36.353Z,13.10
2022-11-26T03:22:04.267Z,12.67
2022-11-26T03:24:32.254Z,16.60
2022-11-26T03:27:00.278Z,14.30
2022-11-26T03:29:28.304Z,15.33
2022-11-26T03:31:56.563Z,14.63
2022-11-26T03:34:26.025Z,12.23
2022-11-26T03:36:53.948Z,15.80
2022-11-26T03:39:21.802Z,15.87
2022-11-26T03:41:49.632Z,13.10
2022-11-26T03:44:17.473Z,10.80
2022-11-26T03:46:45.351Z,13.80
2022-11-26T03:49:13.196Z,15.90
2022-11-26T03:51:42.383Z,12.40
2022-11-26T03:54:10.244Z,17.70
2022-11-26T03:56:38.088Z,17.20
2022-11-26T03:59:05.934Z,13.23
2022-11-26T04:01:33.835Z,12.40
2022-11-26T04:04:01.791Z,12.93
2022-11-26T04:06:29.680Z,16.60
2022-11-26T04:08:58.941Z,13.77
2022-11-26T04:11:26.777Z,14.23
2022-11-26T04:13:54.646Z,15.40
2022-11-26T04:16:22.596Z,16.93
2022-11-26T04:18:50.444Z,15.57
2022-11-26T04:21:18.308Z,13.43
2022-11-26T04:23:46.170Z,14.23
2022-11-26T04:26:15.353Z,12.53
2022-11-26T04:28:43.166Z,15.03
2022-11-26T04:31:11.114Z,15.77
2022-11-26T04:33:39.226Z,14.17
2022-11-26T04:36:07.266Z,12.90
2022-11-26T04:38:35.162Z,14.80
2022-11-26T04:41:02.996Z,13.43
2022-11-26T04:43:32.191Z,10.77
2022-11-26T04:46:00.126Z,15.80
2022-11-26T04:48:28.922Z,14.53
2022-11-26T04:50:56.845Z,13.83
2022-11-26T04:53:24.719Z,12.07
2022-11-26T04:55:53.474Z,16.10
2022-11-26T04:58:21.730Z,12.73
2022-11-26T05:00:51.597Z,15.27
2022-11-26T05:03:19.646Z,12.03
2022-11-26T05:05:47.635Z,15.67
2022-11-26T05:08:15.576Z,12.80
2022-11-26T05:10:43.398Z,12.87
2022-11-26T05:13:11.297Z,12.77
2022-11-26T05:15:39.515Z,12.00
2022-11-26T05:18:08.679Z,13.33
2022-11-26T05:20:36.506Z,14.83
2022-11-26T05:23:04.371Z,10.90
2022-11-26T05:25:32.239Z,15.80
2022-11-26T05:28:00.081Z,13.33
2022-11-26T05:30:28.386Z,12.20
2022-11-26T05:32:56.222Z,13.57
2022-11-26T05:35:25.415Z,9.13
2022-11-26T05:37:53.220Z,10.90
2022-11-26T05:40:21.221Z,11.80
2022-11-26T05:42:49.288Z,9.90
2022-11-26T05:45:17.477Z,9.60
2022-11-26T05:47:45.369Z,9.73
2022-11-26T05:50:13.403Z,12.43
2022-11-26T05:52:42.567Z,7.93
2022-11-26T05:55:11.429Z,12.00
2022-11-26T05:57:39.360Z,12.13
2022-11-26T06:00:08.611Z,8.13
2022-11-26T06:02:36.566Z,11.00
2022-11-26T06:05:05.202Z,10.27
2022-11-26T06:07:33.179Z,12.27
2022-11-26T06:10:02.533Z,10.00
2022-11-26T06:12:30.538Z,10.70
2022-11-26T06:14:58.366Z,8.40
2022-11-26T06:17:26.377Z,11.50
2022-11-26T06:19:56.166Z,9.00
2022-11-26T06:22:24.050Z,10.37
2022-11-26T06:24:51.927Z,10.13
2022-11-26T06:27:21.144Z,10.20
2022-11-26T06:29:48.987Z,10.63
2022-11-26T06:32:16.850Z,11.80
2022-11-26T06:34:46.699Z,9.67
2022-11-26T06:37:16.549Z,8.83
2022-11-26T06:39:44.342Z,7.80
2022-11-26T06:42:12.186Z,9.63
2022-11-26T06:44:41.528Z,10.37
2022-11-26T06:47:11.703Z,8.47
2022-11-26T06:49:39.639Z,7.30
2022-11-26T06:52:07.725Z,10.57
2022-11-26T06:54:35.782Z,8.33
2022-11-26T06:57:03.726Z,11.70
2022-11-26T06:59:31.671Z,9.30
2022-11-26T07:02:00.969Z,8.30
2022-11-26T07:04:28.907Z,8.93
2022-11-26T07:06:56.940Z,7.87
2022-11-26T07:09:24.935Z,7.93
2022-11-26T07:11:52.750Z,7.60
2022-11-26T07:14:22.340Z,7.47
2022-11-26T07:16:50.275Z,9.13
2022-11-26T07:19:19.490Z,9.90
2022-11-26T07:21:47.655Z,13.47
2022-11-26T07:24:16.685Z,11.63
2022-11-26T07:26:44.535Z,7.70
2022-11-26T07:29:12.388Z,9.70
2022-11-26T07:31:40.417Z,11.57
2022-11-26T07:34:08.301Z,8.53
2022-11-26T07:36:42.790Z,8.47
2022-11-26T07:39:12.424Z,9.20
2022-11-26T07:41:40.255Z,13.43
2022-11-26T07:44:11.943Z,14.90
2022-11-26T07:46:40.104Z,12.87
2022-11-26T07:49:09.283Z,12.13
2022-11-26T07:51:39.703Z,10.03
2022-11-26T07:54:08.687Z,8.57
2022-11-26T07:56:36.952Z,9.17
2022-11-26T07:59:05.040Z,7.43
2022-11-26T08:01:33.401Z,9.93
2022-11-26T08:04:04.561Z,10.10
2022-11-26T08:06:33.124Z,10.20
2022-11-26T08:09:03.359Z,8.60
2022-11-26T08:11:33.312Z,9.13
2022-11-26T08:14:02.620Z,8.73
2022-11-26T08:16:30.535Z,10.43
2022-11-26T08:19:00.466Z,8.93
2022-11-26T08:21:28.776Z,10.83
2022-11-26T08:23:56.881Z,10.90
2022-11-26T08:26:33.892Z,8.17
2022-11-26T08:29:04.072Z,6.50
2022-11-26T08:31:31.971Z,9.20
2022-11-26T08:34:00.911Z,7.77
2022-11-26T08:36:29.634Z,9.73
2022-11-26T08:38:57.949Z,10.07
2022-11-26T08:41:27.924Z,8.47
2022-11-26T08:44:11.167Z,5.67
2022-11-26T08:46:40.530Z,8.33
2022-11-26T08:49:11.980Z,10.57
2022-11-26T08:51:39.929Z,9.07
2022-11-26T08:54:08.201Z,8.73
2022-11-26T08:56:37.762Z,9.17
2022-11-26T08:59:05.779Z,10.13
2022-11-26T09:01:34.629Z,7.20
2022-11-26T09:04:03.904Z,7.13
2022-11-26T09:06:33.205Z,8.80
2022-11-26T09:09:14.500Z,9.80
2022-11-26T09:11:46.702Z,7.57
2022-11-26T09:14:15.905Z,7.63
2022-11-26T09:16:43.920Z,8.53
2022-11-26T09:19:13.676Z,7.43
2022-11-26T09:21:41.792Z,8.60
2022-11-26T09:24:09.808Z,8.17
2022-11-26T09:26:37.696Z,8.50
2022-11-26T09:29:07.195Z,10.97
2022-11-26T09:31:35.176Z,7.43
2022-11-26T09:34:03.690Z,8.77
2022-11-26T09:36:31.784Z,9.60
2022-11-26T09:39:00.584Z,8.00
2022-11-26T09:41:40.641Z,9.13
2022-11-26T09:44:33.109Z,8.63
2022-11-26T09:47:16.291Z,7.63
2022-11-26T09:49:58.190Z,7.07
2022-11-26T09:52:29.525Z,4.70
2022-11-26T09:55:05.447Z,7.17
2022-11-26T09:57:41.384Z,8.53
2022-11-26T10:00:23.952Z,7.60
2022-11-26T10:02:54.515Z,13.13
2022-11-26T10:05:24.663Z,9.73
2022-11-26T10:08:03.640Z,9.37
2022-11-26T10:10:38.448Z,7.50
2022-11-26T10:13:19.981Z,7.03
2022-11-26T10:15:59.335Z,11.67
2022-11-26T10:18:38.555Z,7.60
2022-11-26T10:21:27.380Z,7.57
2022-11-26T10:24:04.979Z,7.83
2022-11-26T10:26:37.005Z,8.77
2022-11-26T10:29:22.755Z,6.57
2022-11-26T10:31:56.046Z,8.43
2022-11-26T10:34:32.304Z,9.33
2022-11-26T10:37:02.567Z,10.93
2022-11-26T10:39:30.697Z,11.10
2022-11-26T10:42:04.162Z,7.57
2022-11-26T10:44:39.997Z,6.00
2022-11-26T10:47:28.592Z,9.40
2022-11-26T10:50:32.242Z,7.00
2022-11-26T10:53:06.335Z,5.67
2022-11-26T10:55:38.277Z,6.30
2022-11-26T10:58:08.651Z,13.10
2022-11-26T11:00:55.945Z,9.60
2022-11-26T11:03:44.999Z,8.50
2022-11-26T11:06:28.948Z,11.83
2022-11-26T11:08:57.118Z,7.93
2022-11-26T11:11:26.799Z,7.03
2022-11-26T11:13:55.342Z,9.03
2022-11-26T11:16:28.475Z,11.03
2022-11-26T11:18:59.724Z,6.90
2022-11-26T11:21:37.213Z,7.90
2022-11-26T11:24:10.959Z,8.70
2022-11-26T11:26:44.752Z,7.10
2022-11-26T11:29:27.483Z,7.73
2022-11-26T11:31:55.871Z,8.77
2022-11-26T11:34:30.542Z,10.10
2022-11-26T11:37:04.195Z,8.53
2022-11-26T11:39:33.477Z,8.47
2022-11-26T11:42:04.460Z,8.87
2022-11-26T11:44:39.602Z,9.63
2022-11-26T11:47:30.298Z,8.63
2022-11-26T11:50:16.955Z,7.77
2022-11-26T11:52:57.292Z,6.63
2022-11-26T11:55:36.785Z,11.47
2022-11-26T11:58:38.070Z,8.20
2022-11-26T12:01:14.891Z,11.90
2022-11-26T12:03:52.388Z,10.37
2022-11-26T12:06:31.663Z,7.10
2022-11-26T12:09:12.155Z,8.77
2022-11-26T12:11:51.552Z,7.23
2022-11-26T12:14:23.465Z,8.80
2022-11-26T12:16:56.477Z,6.87
2022-11-26T12:19:34.236Z,9.40
2022-11-26T12:22:11.569Z,12.10
2022-11-26T12:24:46.356Z,9.37
2022-11-26T12:27:25.081Z,11.93
2022-11-26T12:29:57.107Z,8.80
2022-11-26T12:32:35.406Z,11.07
2022-11-26T12:35:11.608Z,10.07
2022-11-26T12:37:43.265Z,9.07
2022-11-26T12:40:25.380Z,9.87
2022-11-26T12:42:59.190Z,7.57
2022-11-26T12:45:44.668Z,8.77
2022-11-26T12:48:32.468Z,7.90
2022-11-26T12:51:10.245Z,7.80
2022-11-26T12:53:46.033Z,11.53
2022-11-26T13:03:35.461Z,6.60
2022-11-26T13:06:09.432Z,7.07
2022-11-26T13:08:47.660Z,8.53
2022-11-26T13:11:28.754Z,8.53
2022-11-26T13:14:04.505Z,11.57
2022-11-26T13:16:38.959Z,11.10
2022-11-26T13:19:14.506Z,9.40
2022-11-26T13:21:56.581Z,9.50
2022-11-26T13:24:42.147Z,14.57
2022-11-26T13:27:24.927Z,7.40
2022-11-26T13:30:08.518Z,12.10
2022-11-26T13:33:06.551Z,9.50
2022-11-26T13:36:15.968Z,14.87
2022-11-26T13:38:54.488Z,11.50
2022-11-26T13:41:43.613Z,9.67
2022-11-26T13:44:46.875Z,10.90
2022-11-26T13:47:21.830Z,14.73
2022-11-26T13:49:57.687Z,21.77
2022-11-26T13:52:32.006Z,11.87
2022-11-26T13:55:03.468Z,9.97
2022-11-26T13:57:40.806Z,11.77
2022-11-26T14:00:10.307Z,11.50
2022-11-26T14:02:57.002Z,7.80
2022-11-26T14:05:44.978Z,9.00
2022-11-26T14:08:35.381Z,9.40
2022-11-26T14:11:03.782Z,7.77
2022-11-26T14:13:31.655Z,7.07
2022-11-26T14:16:07.013Z,8.20
2022-11-26T14:19:07.877Z,7.93
2022-11-26T14:22:00.861Z,7.70
2022-11-26T14:24:57.600Z,8.10
2022-11-26T14:27:28.840Z,6.87
2022-11-26T14:30:01.163Z,7.63
2022-11-26T14:32:37.802Z,7.10
2022-11-26T14:35:19.362Z,11.03
2022-11-26T14:37:53.481Z,6.33
2022-11-26T14:40:25.909Z,9.80
2022-11-26T14:43:17.129Z,8.83
2022-11-26T14:45:47.936Z,10.57
2022-11-26T14:48:25.574Z,7.40
2022-11-26T14:50:55.205Z,7.60
2022-11-26T14:53:28.933Z,6.97
2022-11-26T14:55:59.196Z,6.07
2022-11-26T14:58:33.806Z,4.83
2022-11-26T15:01:08.054Z,6.73
2022-11-26T15:03:36.204Z,7.90
2022-11-26T15:06:04.204Z,6.13
2022-11-26T15:08:32.192Z,6.97
2022-11-26T15:11:04.070Z,8.43
2022-11-26T15:13:34.330Z,4.87
2022-11-26T15:16:04.720Z,5.70
2022-11-26T15:18:35.625Z,5.07
2022-11-26T15:21:06.680Z,5.40
2022-11-26T15:23:39.250Z,5.63
2022-11-26T15:26:14.694Z,6.13
2022-11-26T15:28:42.521Z,5.00
2022-11-26T15:31:10.932Z,6.57
2022-11-26T15:33:40.088Z,5.77
2022-11-26T15:36:17.202Z,3.90
2022-11-26T15:39:02.903Z,18.17
2022-11-26T15:41:32.186Z,8.83
2022-11-26T15:44:01.342Z,17.83
2022-11-26T15:46:33.211Z,11.47
2022-11-26T15:49:04.224Z,10.37
2022-11-26T15:51:36.012Z,11.73
2022-11-26T15:54:06.530Z,20.07
2022-11-26T15:56:38.493Z,17.73
2022-11-26T15:59:15.107Z,9.73
2022-11-26T16:01:46.624Z,9.03
2022-11-26T16:04:44.119Z,21.77
2022-11-26T16:07:17.378Z,10.27
2022-11-26T16:09:47.167Z,19.97
2022-11-26T16:12:44.777Z,11.93
2022-11-26T16:15:23.936Z,25.97
2022-11-26T16:17:52.357Z,20.27
2022-11-26T16:20:22.703Z,11.43
2022-11-26T16:22:52.949Z,16.90
2022-11-26T16:25:24.147Z,14.10
2022-11-26T16:28:15.018Z,12.00
2022-11-26T16:30:44.915Z,12.70
2022-11-26T16:33:12.967Z,22.13
2022-11-26T16:35:46.522Z,15.23
2022-11-26T16:38:21.468Z,17.77
2022-11-26T16:40:49.899Z,18.17
2022-11-26T16:43:19.317Z,12.07
2022-11-26T16:45:48.059Z,17.63
2022-11-26T16:48:23.224Z,22.67
2022-11-26T16:50:51.280Z,14.70
2022-11-26T16:53:19.398Z,23.70
2022-11-26T16:55:49.665Z,21.10
2022-11-26T16:58:27.693Z,16.63
2022-11-26T17:00:56.241Z,14.67
2022-11-26T17:03:24.575Z,16.87
2022-11-26T17:05:55.199Z,13.57
2022-11-26T17:08:23.553Z,14.53
2022-11-26T17:10:51.957Z,19.20
2022-11-26T17:13:22.987Z,9.27
2022-11-26T17:15:51.943Z,11.73
2022-11-26T17:18:21.652Z,12.23
2022-11-26T17:20:50.097Z,9.30
2022-11-26T17:23:18.360Z,11.10
2022-11-26T17:25:49.443Z,12.93
2022-11-26T17:28:17.438Z,13.10
2022-11-26T17:31:02.208Z,13.93
2022-11-26T17:33:30.068Z,10.33
2022-11-26T17:35:58.082Z,15.70
2022-11-26T17:38:26.014Z,14.00
2022-11-26T17:40:53.995Z,12.50
2022-11-26T17:43:21.963Z,9.97
2022-11-26T17:45:51.509Z,11.30
2022-11-26T17:48:22.112Z,7.07
2022-11-26T17:50:52.343Z,13.07
2022-11-26T17:53:24.272Z,8.33
2022-11-26T17:55:54.378Z,15.43
2022-11-26T17:58:22.385Z,5.77
2022-11-26T18:00:51.835Z,11.40
2022-11-26T18:03:20.013Z,9.67
2022-11-26T18:05:47.980Z,13.00
2022-11-26T18:08:16.233Z,8.20
2022-11-26T18:10:44.362Z,8.87
2022-11-26T18:13:12.355Z,6.63
2022-11-26T18:15:40.579Z,10.47
2022-11-26T18:18:14.402Z,8.40
2022-11-26T18:20:44.510Z,20.57
2022-11-26T18:23:13.044Z,17.77
2022-11-26T18:27:38.236Z,10.83
2022-11-26T18:30:07.221Z,19.03
2022-11-26T18:32:37.081Z,8.93
2022-11-26T18:35:05.800Z,14.80
2022-11-26T18:37:35.015Z,7.93
2022-11-26T18:40:03.120Z,9.20
2022-11-26T18:42:38.738Z,5.00
2022-11-26T18:45:11.393Z,7.30
2022-11-26T18:47:39.435Z,9.83
2022-11-26T18:50:08.511Z,5.33
2022-11-26T18:52:36.440Z,4.57
2022-11-26T18:55:08.065Z,7.17
2022-11-26T18:57:35.964Z,7.33
2022-11-26T19:00:05.264Z,10.30
2022-11-26T19:02:34.947Z,6.70
2022-11-26T19:05:03.517Z,10.57
2022-11-26T19:07:32.986Z,8.33
2022-11-26T19:10:00.948Z,6.83
2022-11-26T19:12:28.786Z,13.13
2022-11-26T19:14:56.627Z,17.70
2022-11-26T19:17:24.438Z,24.63
2022-11-26T19:19:53.635Z,23.57
2022-11-26T19:22:21.465Z,20.17
2022-11-26T19:24:49.435Z,29.90
2022-11-26T19:27:17.288Z,24.00
2022-11-26T19:29:45.067Z,25.23
2022-11-26T19:32:12.855Z,26.00
2022-11-26T19:34:40.828Z,25.47
2022-11-26T19:37:10.000Z,23.23
2022-11-26T19:39:38.125Z,28.27
2022-11-26T19:42:06.250Z,31.20
2022-11-26T19:44:35.206Z,27.30
2022-11-26T19:47:03.250Z,25.90
2022-11-26T19:49:31.103Z,28.20
2022-11-26T19:51:59.113Z,21.97
2022-11-26T19:54:28.283Z,25.60
2022-11-26T19:56:56.090Z,24.27
2022-11-26T19:59:23.927Z,24.17
2022-11-26T20:01:52.101Z,28.43
2022-11-26T20:04:20.209Z,23.33
2022-11-26T20:06:48.133Z,23.63
2022-11-26T20:09:16.238Z,21.13
2022-11-26T20:11:45.692Z,25.83
2022-11-26T20:14:14.897Z,21.60
2022-11-26T20:16:44.980Z,20.20
2022-11-26T20:19:13.979Z,20.23
2022-11-26T20:21:41.824Z,22.27
2022-11-26T20:24:14.012Z,21.90
2022-11-26T20:26:43.394Z,18.70
2022-11-26T20:29:14.378Z,21.27
2022-11-26T20:31:45.221Z,19.67
2022-11-26T20:34:14.477Z,21.43
2022-11-26T20:36:42.375Z,18.73
2022-11-26T20:39:14.562Z,19.23
2022-11-26T20:41:42.797Z,21.67
2022-11-26T20:44:12.663Z,18.27
2022-11-26T20:46:41.513Z,19.33
2022-11-26T20:49:10.840Z,15.93
2022-11-26T20:51:38.804Z,16.50
2022-11-26T20:54:06.766Z,15.67
2022-11-26T20:56:34.976Z,16.93
2022-11-26T20:59:03.328Z,17.10
2022-11-26T21:01:32.797Z,15.50
2022-11-26T21:04:00.847Z,14.83
2022-11-26T21:06:31.346Z,15.93
2022-11-26T21:09:01.400Z,14.80
2022-11-26T21:11:29.788Z,17.97
2022-11-26T21:13:59.711Z,13.67
2022-11-26T21:16:28.164Z,16.27
2022-11-26T21:18:57.954Z,13.20
2022-11-26T21:21:27.011Z,12.23
2022-11-26T21:23:55.446Z,12.10
2022-11-26T21:26:25.064Z,10.43
2022-11-26T21:28:53.533Z,12.80
2022-11-26T21:31:22.603Z,14.63
2022-11-26T21:33:57.226Z,11.37
2022-11-26T21:36:25.455Z,10.70
2022-11-26T21:38:53.355Z,16.30
2022-11-26T21:41:21.838Z,12.57
2022-11-26T21:43:50.710Z,11.47
2022-11-26T21:46:20.644Z,18.73
2022-11-26T21:48:48.942Z,12.53
2022-11-26T21:51:19.918Z,9.07
2022-11-26T21:53:49.709Z,12.53
2022-11-26T21:56:19.962Z,8.17
2022-11-26T21:58:48.371Z,12.10
2022-11-26T22:01:18.678Z,9.93
2022-11-26T22:03:48.220Z,9.57
2022-11-26T22:06:18.508Z,10.00
2022-11-26T22:08:47.326Z,8.70
2022-11-26T22:11:17.393Z,9.67
2022-11-26T22:13:45.441Z,11.67
2022-11-26T22:16:15.825Z,9.40
2022-11-26T22:18:44.735Z,12.47
2022-11-26T22:21:15.985Z,9.93
2022-11-26T22:23:45.598Z,7.57
2022-11-26T22:26:13.589Z,7.50
2022-11-26T22:28:41.758Z,13.73
2022-11-26T22:31:11.557Z,8.63
2022-11-26T22:33:40.101Z,8.47
2022-11-26T22:36:08.517Z,6.70
2022-11-26T22:38:39.297Z,8.70
2022-11-26T22:41:12.793Z,7.00
2022-11-26T22:43:40.889Z,8.67
2022-11-26T22:46:11.809Z,7.57
2022-11-26T22:48:39.903Z,7.07
2022-11-26T22:51:08.089Z,12.83
2022-11-26T22:53:36.570Z,7.30
2022-11-26T22:56:05.316Z,8.30
2022-11-26T22:58:35.701Z,8.17
2022-11-26T23:01:05.129Z,8.43
2022-11-26T23:03:36.040Z,6.17
2022-11-26T23:06:05.804Z,7.27
2022-11-26T23:08:33.758Z,7.10
2022-11-26T23:11:06.048Z,6.13
2022-11-26T23:13:35.830Z,6.83
2022-11-26T23:16:03.864Z,6.07
2022-11-26T23:18:31.665Z,6.43
2022-11-26T23:21:09.538Z,5.67
2022-11-26T23:23:38.897Z,7.80
2022-11-26T23:26:08.738Z,8.73
2022-11-26T23:28:38.787Z,5.50
2022-11-26T23:31:08.535Z,5.50
2022-11-26T23:33:36.997Z,7.00
2022-11-26T23:36:05.178Z,5.57
2022-11-26T23:38:33.141Z,4.83
2022-11-26T23:41:03.066Z,6.23
2022-11-26T23:43:32.427Z,6.00
2022-11-26T23:46:05.956Z,5.00
2022-11-26T23:48:34.198Z,4.53
2022-11-26T23:51:02.030Z,4.83
2022-11-26T23:53:29.861Z,4.73
2022-11-26T23:56:02.924Z,6.37
2022-11-26T23:58:30.773Z,4.77
